OIAH  Gachsaran  Airport

Gachsaran, Iran

Add Bookmark
ICAO OIAH
Type Airport
Status Operational
Latitude
30° 20' 15" N
30.337601
Longitude
50° 49' 40" E
50.827999
Local (DST + 5) UTC (GMT + 4)
Jul 5, 2015 11:51 Jul 5, 2015 19:21
Sunrise-Sunset Local UTC
Begin Civil Twilight 05:41 01:11
Sunrise 06:08 01:38
Sunset 08:13 15:43
End Civil Twilight 08:41 16:11
VFR
VFR
MVFR
MVFR
IFR
IFR
LIFR
LIFR
Unknown
Unavailable

Current Weather

METAR Observed
OIAH 051900Z 27004KT 7000 NSC 37/M02 Q1005 Sun, Jul 5, 2015 @ 19:00 UTC
(21 Minutes ago)
Wind Visibility Conditions
270° at 4 knots (7 kph) 7,001 m
  • No significant weather
Temperatures Readings Precipitation
Current Temp
37°C
99°F
Dewpoint
-2°C
28°F
Humidity 8%
Altimeter 29.68" Hg
Sea Level Pressure 1,005 mb
Field Elevation
738 m
2,421 ft
None Recorded

Additional weather within a 92.6km radius of OIAH

Map ICAO Location
OISY 79.6km E/NE (059°)
VFR
VFR
MVFR
MVFR
IFR
IFR
LIFR
LIFR
Unknown
Unavailable
-
-

CheckWX.com is intended as a tool to help pilots better visualize weather data. It is not intended as a substitute for an official weather briefing obtained from a Flight Service Station. CheckWX.com does not meet the FAA requirements for an official pre-flight weather briefing. Therefore, it's important that pilots still call and obtain an official FSS pre-flight weather briefing.

© 2007-2015 CheckWX.com
19:21:17 UTC